Porto de Moz, Brazil
Current Conditions -  °F | °C
As of 5:00 PM on Thursday 23 Oct 2014 (Local Time) from SBHT Reporting Station
Scattered Clouds Scattered Clouds  
Wind Chill: 82°   Ceiling: Unl
Heat Index: 92°   Visibility: 6mi
Dew Point: 79°   Wind: 2mph
Humidity: 89%   Direction: 200°SSW
Pressure: 29.8"   Gusts: NA
Location:  1.74°S, 52.24°W
Report Text: SBHT 232000Z 20002KT 9999 SCT023 28/26 Q1009
Loading
Personal Weather Stations






























Interactive Weather Map
Tropical Storm Tracking
New forecast layout! Learn more

10-Day Weather Forecast

Advertisements
Track Severe Weather on mobile